createdAt,value
2023-04-30T00:00:40.290Z,97413.89
2023-04-30T00:03:28.514Z,97413.91
2023-04-30T00:05:57.417Z,97413.95
2023-04-30T00:08:25.548Z,97415.21
2023-04-30T00:10:53.681Z,97414.00
2023-04-30T00:13:21.739Z,97412.81
2023-04-30T00:15:50.007Z,97412.27
2023-04-30T00:18:18.061Z,97411.63
2023-04-30T00:20:46.240Z,97411.88
2023-04-30T00:23:14.822Z,97411.84
2023-04-30T00:25:43.399Z,97413.41
2023-04-30T00:28:11.554Z,97411.55
2023-04-30T00:30:39.623Z,97412.04
2023-04-30T00:33:07.766Z,97412.79
2023-04-30T00:35:36.722Z,97416.13
2023-04-30T00:38:04.722Z,97416.31
2023-04-30T00:40:35.438Z,97417.27
2023-04-30T00:43:04.298Z,97413.33
2023-04-30T00:45:32.377Z,97410.79
2023-04-30T00:48:00.741Z,97410.79
2023-04-30T00:50:29.617Z,97408.93
2023-04-30T00:52:59.633Z,97405.38
2023-04-30T00:55:27.854Z,97408.62
2023-04-30T00:57:57.120Z,97406.42
2023-04-30T01:00:25.445Z,97405.88
2023-04-30T01:02:54.038Z,97403.40
2023-04-30T01:05:23.059Z,97402.66
2023-04-30T01:07:56.540Z,97402.09
2023-04-30T01:10:30.471Z,97400.91
2023-04-30T01:13:09.425Z,97401.58
2023-04-30T01:15:47.856Z,97402.66
2023-04-30T01:18:21.171Z,97403.21
2023-04-30T01:20:57.225Z,97401.20
2023-04-30T01:23:38.181Z,97401.29
2023-04-30T01:26:43.791Z,97400.48
2023-04-30T01:29:16.843Z,97399.68
2023-04-30T01:31:45.177Z,97399.04
2023-04-30T01:34:13.356Z,97398.25
2023-04-30T01:37:03.984Z,97394.95
2023-04-30T01:40:10.037Z,97385.83
2023-04-30T01:43:02.221Z,97385.34
2023-04-30T01:45:53.955Z,97381.17
2023-04-30T01:48:46.847Z,97382.30
2023-04-30T01:51:29.178Z,97379.05
2023-04-30T01:54:00.041Z,97376.52
2023-04-30T01:56:51.466Z,97382.20
2023-04-30T01:59:19.906Z,97381.81
2023-04-30T02:01:48.478Z,97384.23
2023-04-30T02:04:16.706Z,97391.50
2023-04-30T02:06:44.816Z,97384.21
2023-04-30T02:09:14.223Z,97385.27
2023-04-30T02:11:42.385Z,97383.93
2023-04-30T02:14:10.670Z,97385.41
2023-04-30T02:16:38.748Z,97384.90
2023-04-30T02:19:06.954Z,97384.09
2023-04-30T02:21:35.167Z,97379.45
2023-04-30T02:24:03.190Z,97378.86
2023-04-30T02:26:31.151Z,97378.92
2023-04-30T02:28:59.451Z,97374.52
2023-04-30T02:31:27.731Z,97377.48
2023-04-30T02:33:56.368Z,97380.56
2023-04-30T02:36:24.849Z,97377.64
2023-04-30T02:38:52.976Z,97378.48
2023-04-30T02:41:21.767Z,97378.05
2023-04-30T02:43:49.791Z,97380.36
2023-04-30T02:46:18.604Z,97386.11
2023-04-30T02:48:47.193Z,97381.52
2023-04-30T02:51:15.270Z,97384.80
2023-04-30T02:53:44.402Z,97388.94
2023-04-30T02:56:12.429Z,97386.33
2023-04-30T02:58:41.946Z,97384.54
2023-04-30T03:01:10.237Z,97386.66
2023-04-30T03:03:38.438Z,97389.11
2023-04-30T03:06:06.796Z,97386.70
2023-04-30T03:08:34.987Z,97384.44
2023-04-30T03:11:03.015Z,97390.23
2023-04-30T03:13:31.420Z,97390.25
2023-04-30T03:16:00.570Z,97394.05
2023-04-30T03:18:29.276Z,97398.76
2023-04-30T03:20:57.582Z,97399.55
2023-04-30T03:23:28.146Z,97397.37
2023-04-30T03:25:56.590Z,97402.84
2023-04-30T03:28:24.606Z,97404.27
2023-04-30T03:30:53.016Z,97405.17
2023-04-30T03:33:21.273Z,97406.44
2023-04-30T03:35:50.565Z,97409.43
2023-04-30T03:38:18.563Z,97410.28
2023-04-30T03:40:46.760Z,97407.56
2023-04-30T03:43:14.890Z,97402.34
2023-04-30T03:45:44.372Z,97405.02
2023-04-30T03:48:12.648Z,97406.16
2023-04-30T03:50:40.885Z,97411.52
2023-04-30T03:53:09.356Z,97413.93
2023-04-30T03:55:38.023Z,97415.84
2023-04-30T03:58:06.230Z,97414.20
2023-04-30T04:00:34.613Z,97411.59
2023-04-30T04:03:04.342Z,97411.40
2023-04-30T04:05:32.386Z,97414.06
2023-04-30T04:08:00.427Z,97418.77
2023-04-30T04:10:28.720Z,97419.58
2023-04-30T04:12:56.850Z,97415.66
2023-04-30T04:15:24.937Z,97416.36
2023-04-30T04:17:53.000Z,97416.16
2023-04-30T04:20:21.230Z,97416.91
2023-04-30T04:22:49.696Z,97416.98
2023-04-30T04:25:18.551Z,97416.45
2023-04-30T04:27:46.655Z,97418.80
2023-04-30T04:30:14.868Z,97414.71
2023-04-30T04:32:46.926Z,97414.23
2023-04-30T04:35:16.355Z,97414.05
2023-04-30T04:37:44.436Z,97412.20
2023-04-30T04:40:13.643Z,97415.21
2023-04-30T04:42:42.246Z,97420.48
2023-04-30T04:45:11.229Z,97418.23
2023-04-30T04:47:40.612Z,97422.80
2023-04-30T04:50:09.874Z,97415.64
2023-04-30T04:52:39.262Z,97419.79
2023-04-30T04:55:07.930Z,97416.55
2023-04-30T04:57:37.352Z,97419.67
2023-04-30T05:00:08.232Z,97421.54
2023-04-30T05:02:36.306Z,97423.38
2023-04-30T05:05:04.852Z,97425.34
2023-04-30T05:07:32.850Z,97424.87
2023-04-30T05:10:00.875Z,97422.39
2023-04-30T05:12:29.104Z,97421.64
2023-04-30T05:14:59.253Z,97419.98
2023-04-30T05:17:27.271Z,97413.38
2023-04-30T05:19:55.759Z,97415.93
2023-04-30T05:22:24.329Z,97419.95
2023-04-30T05:24:53.475Z,97416.89
2023-04-30T05:27:21.750Z,97414.89
2023-04-30T05:29:49.932Z,97415.48
2023-04-30T05:32:18.024Z,97407.14
2023-04-30T05:34:46.345Z,97407.06
2023-04-30T05:37:15.083Z,97408.64
2023-04-30T05:39:43.162Z,97404.87
2023-04-30T05:42:11.157Z,97401.92
2023-04-30T05:44:39.303Z,97405.39
2023-04-30T05:47:07.297Z,97409.10
2023-04-30T05:49:36.205Z,97408.09
2023-04-30T05:52:04.675Z,97411.21
2023-04-30T05:54:33.558Z,97408.57
2023-04-30T05:57:02.141Z,97409.66
2023-04-30T05:59:30.135Z,97407.75
2023-04-30T06:01:58.422Z,97407.66
2023-04-30T06:04:26.550Z,97403.77
2023-04-30T06:06:54.646Z,97409.16
2023-04-30T06:09:22.825Z,97411.72
2023-04-30T06:11:52.154Z,97410.60
2023-04-30T06:14:20.341Z,97411.88
2023-04-30T06:16:49.531Z,97410.41
2023-04-30T06:19:17.547Z,97412.10
2023-04-30T06:21:45.601Z,97412.13
2023-04-30T06:24:15.899Z,97412.07
2023-04-30T06:26:43.983Z,97410.77
2023-04-30T06:29:12.172Z,97410.86
2023-04-30T06:31:40.291Z,97408.84
2023-04-30T06:34:08.404Z,97402.83
2023-04-30T06:36:37.592Z,97405.30
2023-04-30T06:39:05.740Z,97402.41
2023-04-30T06:41:33.964Z,97400.84
2023-04-30T06:44:09.079Z,97402.17
2023-04-30T06:46:37.493Z,97400.38
2023-04-30T06:49:06.696Z,97395.42
2023-04-30T06:51:34.729Z,97392.98
2023-04-30T06:54:02.873Z,97392.30
2023-04-30T06:56:31.098Z,97392.37
2023-04-30T06:58:59.102Z,97393.95
2023-04-30T07:01:27.577Z,97395.70
2023-04-30T07:03:56.042Z,97398.92
2023-04-30T07:06:25.298Z,97397.02
2023-04-30T07:08:53.505Z,97402.16
2023-04-30T07:11:22.351Z,97396.20
2023-04-30T07:13:50.570Z,97406.33
2023-04-30T07:16:18.678Z,97397.28
2023-04-30T07:18:48.924Z,97391.91
2023-04-30T07:21:18.913Z,97398.77
2023-04-30T07:23:47.011Z,97392.11
2023-04-30T07:26:15.942Z,97390.58
2023-04-30T07:28:44.101Z,97392.79
2023-04-30T07:31:12.790Z,97392.61
2023-04-30T07:33:42.515Z,97392.35
2023-04-30T07:36:11.089Z,97391.56
2023-04-30T07:38:39.474Z,97389.59
2023-04-30T07:41:08.226Z,97396.52
2023-04-30T07:43:36.401Z,97397.05
2023-04-30T07:46:04.726Z,97394.48
2023-04-30T07:48:32.848Z,97393.41
2023-04-30T07:51:00.993Z,97396.17
2023-04-30T07:53:31.163Z,97389.70
2023-04-30T07:55:59.261Z,97394.92
2023-04-30T07:58:27.683Z,97400.41
2023-04-30T08:00:55.839Z,97400.23
2023-04-30T08:03:24.360Z,97397.52
2023-04-30T08:05:53.257Z,97402.12
2023-04-30T08:08:23.387Z,97406.02
2023-04-30T08:10:51.447Z,97408.91
2023-04-30T08:13:20.771Z,97403.42
2023-04-30T08:15:50.859Z,97399.08
2023-04-30T08:18:18.865Z,97397.66
2023-04-30T08:20:47.276Z,97395.02
2023-04-30T08:23:16.835Z,97394.88
2023-04-30T08:25:44.916Z,97394.95
2023-04-30T08:28:13.204Z,97401.16
2023-04-30T08:30:41.267Z,97403.75
2023-04-30T08:33:11.983Z,97401.90
2023-04-30T08:35:40.731Z,97409.88
2023-04-30T08:38:08.881Z,97395.78
2023-04-30T08:40:50.483Z,97397.16
2023-04-30T08:43:21.570Z,97394.15
2023-04-30T08:45:54.879Z,97386.90
2023-04-30T08:48:25.089Z,97390.52
2023-04-30T08:50:53.184Z,97390.52
2023-04-30T08:53:22.054Z,97389.73
2023-04-30T08:55:50.249Z,97386.58
2023-04-30T08:58:19.273Z,97391.39
2023-04-30T09:00:47.691Z,97384.64
2023-04-30T09:03:16.256Z,97384.27
2023-04-30T09:05:47.649Z,97379.01
2023-04-30T09:08:20.490Z,97382.88
2023-04-30T09:10:48.549Z,97367.73
2023-04-30T09:13:16.738Z,97367.15
2023-04-30T09:15:45.995Z,97365.43
2023-04-30T09:18:18.039Z,97362.73
2023-04-30T09:21:02.103Z,97368.92
2023-04-30T09:23:30.530Z,97367.73
2023-04-30T09:25:58.551Z,97367.20
2023-04-30T09:28:28.982Z,97373.61
2023-04-30T09:30:57.828Z,97368.48
2023-04-30T09:33:25.986Z,97364.59
2023-04-30T09:35:54.130Z,97365.02
2023-04-30T09:38:40.771Z,97367.75
2023-04-30T09:41:45.274Z,97366.95
2023-04-30T09:44:29.852Z,97363.31
2023-04-30T09:46:59.053Z,97360.11
2023-04-30T09:49:27.904Z,97373.95
2023-04-30T09:51:57.573Z,97369.23
2023-04-30T09:54:30.833Z,97360.98
2023-04-30T09:57:02.550Z,97360.03
2023-04-30T09:59:37.979Z,97353.38
2023-04-30T10:02:08.346Z,97359.14
2023-04-30T10:04:42.512Z,97346.45
2023-04-30T10:07:19.455Z,97346.29
2023-04-30T10:10:03.420Z,97342.02
2023-04-30T10:12:48.809Z,97336.85
2023-04-30T10:15:36.617Z,97341.57
2023-04-30T10:18:13.649Z,97339.45
2023-04-30T10:20:49.218Z,97340.29
2023-04-30T10:23:17.420Z,97338.91
2023-04-30T10:25:45.968Z,97351.73
2023-04-30T10:28:14.485Z,97350.05
2023-04-30T10:30:45.973Z,97338.17
2023-04-30T10:33:32.485Z,97334.61
2023-04-30T10:36:13.438Z,97325.88
2023-04-30T10:38:41.644Z,97328.44
2023-04-30T10:41:10.100Z,97323.80
2023-04-30T10:43:39.484Z,97329.70
2023-04-30T10:46:10.007Z,97336.85
2023-04-30T10:48:38.209Z,97334.76
2023-04-30T10:51:08.824Z,97328.88
2023-04-30T10:53:37.112Z,97325.52
2023-04-30T10:56:07.404Z,97322.06
2023-04-30T10:58:38.685Z,97324.98
2023-04-30T11:01:17.538Z,97331.54
2023-04-30T11:04:07.948Z,97325.45
2023-04-30T11:06:54.195Z,97320.54
2023-04-30T11:09:41.832Z,97311.71
2023-04-30T11:12:19.689Z,97318.20
2023-04-30T11:14:50.577Z,97312.67
2023-04-30T11:17:27.673Z,97310.33
2023-04-30T11:20:03.731Z,97319.67
2023-04-30T11:22:37.795Z,97314.96
2023-04-30T11:25:10.281Z,97306.55
2023-04-30T11:27:42.924Z,97309.00
2023-04-30T11:30:16.534Z,97313.85
2023-04-30T11:32:47.884Z,97321.94
2023-04-30T11:35:20.948Z,97315.16
2023-04-30T11:37:54.829Z,97319.40
2023-04-30T11:40:22.938Z,97314.08
2023-04-30T11:42:50.995Z,97314.53
2023-04-30T11:45:23.618Z,97309.02
2023-04-30T11:47:54.258Z,97300.01
2023-04-30T11:50:29.685Z,97306.34
2023-04-30T11:53:05.443Z,97304.53
2023-04-30T11:55:35.324Z,97306.27
2023-04-30T11:58:03.832Z,97302.30
2023-04-30T12:00:34.630Z,97299.11
2023-04-30T12:03:04.671Z,97300.97
2023-04-30T12:05:32.826Z,97293.31
2023-04-30T12:08:04.754Z,97284.45
2023-04-30T12:10:33.308Z,97281.55
2023-04-30T12:13:01.710Z,97289.18
2023-04-30T12:15:29.892Z,97283.16
2023-04-30T12:18:11.133Z,97279.41
2023-04-30T12:20:40.829Z,97283.98
2023-04-30T12:23:09.975Z,97279.66
2023-04-30T12:25:45.745Z,97276.92
2023-04-30T12:28:14.655Z,97278.27
2023-04-30T12:30:44.144Z,97280.09
2023-04-30T12:33:14.474Z,97283.99
2023-04-30T12:35:44.093Z,97293.12
2023-04-30T12:38:18.592Z,97286.52
2023-04-30T12:40:49.089Z,97286.59
2023-04-30T12:43:18.579Z,97285.72
2023-04-30T12:45:55.764Z,97278.17
2023-04-30T12:48:26.266Z,97271.67
2023-04-30T12:51:02.857Z,97276.16
2023-04-30T12:53:31.844Z,97269.11
2023-04-30T12:56:16.060Z,97270.51
2023-04-30T12:58:47.468Z,97264.19
2023-04-30T13:01:24.702Z,97261.81
2023-04-30T13:03:55.737Z,97257.90
2023-04-30T13:06:24.277Z,97271.01
2023-04-30T13:08:58.467Z,97266.73
2023-04-30T13:11:29.147Z,97263.41
2023-04-30T13:13:57.293Z,97260.52
2023-04-30T13:16:26.795Z,97255.18
2023-04-30T13:18:55.942Z,97255.02
2023-04-30T13:21:25.041Z,97261.85
2023-04-30T13:23:54.558Z,97257.14
2023-04-30T13:26:24.657Z,97263.21
2023-04-30T13:28:52.980Z,97266.73
2023-04-30T13:31:21.244Z,97255.98
2023-04-30T13:33:49.740Z,97257.53
2023-04-30T13:36:17.843Z,97245.60
2023-04-30T13:38:45.930Z,97250.36
2023-04-30T13:41:14.416Z,97248.34
2023-04-30T13:43:43.750Z,97246.69
2023-04-30T13:46:12.362Z,97249.13
2023-04-30T13:48:40.815Z,97252.33
2023-04-30T13:51:08.828Z,97255.85
2023-04-30T13:53:37.413Z,97263.46
2023-04-30T13:56:06.653Z,97253.63
2023-04-30T13:58:35.280Z,97246.02
2023-04-30T14:01:03.675Z,97246.52
2023-04-30T14:03:34.232Z,97247.91
2023-04-30T14:06:02.347Z,97256.66
2023-04-30T14:08:31.968Z,97253.35
2023-04-30T14:11:01.644Z,97262.41
2023-04-30T14:13:29.821Z,97249.87
2023-04-30T14:15:57.852Z,97251.45
2023-04-30T14:18:27.343Z,97256.25
2023-04-30T14:20:58.449Z,97257.96
2023-04-30T14:23:29.105Z,97256.20
2023-04-30T14:25:57.387Z,97264.61
2023-04-30T14:28:25.850Z,97258.83
2023-04-30T14:30:54.030Z,97263.66
2023-04-30T14:33:22.322Z,97263.94
2023-04-30T14:35:50.468Z,97253.17
2023-04-30T14:38:18.605Z,97253.69
2023-04-30T14:40:47.362Z,97255.48
2023-04-30T14:43:18.804Z,97247.13
2023-04-30T14:45:47.545Z,97248.98
2023-04-30T14:48:15.791Z,97248.02
2023-04-30T14:50:45.670Z,97242.66
2023-04-30T14:53:14.436Z,97255.69
2023-04-30T14:55:43.313Z,97252.64
2023-04-30T14:58:12.888Z,97262.47
2023-04-30T15:00:41.598Z,97259.16
2023-04-30T15:03:09.860Z,97253.59
2023-04-30T15:05:38.085Z,97252.02
2023-04-30T15:08:06.753Z,97252.69
2023-04-30T15:10:35.513Z,97256.63
2023-04-30T15:13:04.216Z,97256.21
2023-04-30T15:15:32.544Z,97264.65
2023-04-30T15:18:03.738Z,97275.59
2023-04-30T15:20:31.950Z,97268.63
2023-04-30T15:23:00.127Z,97279.70
2023-04-30T15:25:28.135Z,97276.39
2023-04-30T15:27:58.424Z,97280.14
2023-04-30T15:30:26.689Z,97280.75
2023-04-30T15:32:54.911Z,97287.48
2023-04-30T15:35:23.192Z,97288.94
2023-04-30T15:37:52.505Z,97280.61
2023-04-30T15:40:21.314Z,97276.11
2023-04-30T15:42:50.304Z,97285.83
2023-04-30T15:45:20.998Z,97290.55
2023-04-30T15:47:49.097Z,97284.32
2023-04-30T15:50:17.488Z,97281.96
2023-04-30T15:52:45.951Z,97288.11
2023-04-30T15:55:14.050Z,97282.59
2023-04-30T15:57:42.096Z,97284.33
2023-04-30T16:00:11.146Z,97289.29
2023-04-30T16:02:42.864Z,97298.44
2023-04-30T16:05:12.059Z,97293.80
2023-04-30T16:07:43.063Z,97300.80
2023-04-30T16:10:13.126Z,97296.55
2023-04-30T16:12:41.576Z,97296.93
2023-04-30T16:15:10.855Z,97298.66
2023-04-30T16:17:39.217Z,97303.48
2023-04-30T16:20:09.118Z,97300.47
2023-04-30T16:22:38.274Z,97305.88
2023-04-30T16:25:09.995Z,97310.19
2023-04-30T16:27:38.673Z,97312.35
2023-04-30T16:30:07.755Z,97319.70
2023-04-30T16:32:36.563Z,97316.72
2023-04-30T16:35:04.961Z,97320.42
2023-04-30T16:37:33.189Z,97320.17
2023-04-30T16:40:01.790Z,97321.50
2023-04-30T16:42:30.213Z,97322.79
2023-04-30T16:44:58.292Z,97326.06
2023-04-30T16:47:26.451Z,97325.64
2023-04-30T16:49:56.405Z,97325.91
2023-04-30T16:52:24.678Z,97327.30
2023-04-30T16:54:53.256Z,97325.91
2023-04-30T16:57:21.511Z,97327.22
2023-04-30T16:59:49.806Z,97325.06
2023-04-30T17:02:18.103Z,97323.91
2023-04-30T17:04:46.551Z,97329.85
2023-04-30T17:07:17.518Z,97329.85
2023-04-30T17:09:46.758Z,97333.17
2023-04-30T17:12:16.850Z,97332.20
2023-04-30T17:14:45.179Z,97334.98
2023-04-30T17:17:14.705Z,97338.08
2023-04-30T17:19:43.081Z,97340.97
2023-04-30T17:22:13.199Z,97344.08
2023-04-30T17:24:41.227Z,97349.66
2023-04-30T17:27:10.764Z,97354.02
2023-04-30T17:29:39.020Z,97355.25
2023-04-30T17:32:07.243Z,97361.38
2023-04-30T17:34:35.745Z,97364.52
2023-04-30T17:37:04.578Z,97368.81
2023-04-30T17:39:32.714Z,97367.37
2023-04-30T17:42:01.043Z,97373.13
2023-04-30T17:44:31.590Z,97374.47
2023-04-30T17:47:00.802Z,97375.34
2023-04-30T17:49:32.505Z,97384.34
2023-04-30T17:52:01.795Z,97389.67
2023-04-30T17:54:30.953Z,97391.52
2023-04-30T17:57:01.061Z,97396.13
2023-04-30T17:59:32.086Z,97398.04
2023-04-30T18:02:00.095Z,97399.45
2023-04-30T18:04:28.470Z,97406.19
2023-04-30T18:06:56.547Z,97409.80
2023-04-30T18:09:26.258Z,97416.32
2023-04-30T18:11:57.057Z,97419.73
2023-04-30T18:14:26.674Z,97421.77
2023-04-30T18:16:54.921Z,97421.91
2023-04-30T18:19:24.152Z,97423.35
2023-04-30T18:21:53.323Z,97429.14
2023-04-30T18:24:21.809Z,97426.47
2023-04-30T18:26:50.228Z,97430.41
2023-04-30T18:29:18.361Z,97434.46
2023-04-30T18:31:46.620Z,97438.60
2023-04-30T18:34:15.143Z,97445.70
2023-04-30T18:36:44.095Z,97448.90
2023-04-30T18:39:12.500Z,97456.06
2023-04-30T18:41:40.700Z,97456.66
2023-04-30T18:44:11.145Z,97463.98
2023-04-30T18:46:39.635Z,97470.50
2023-04-30T18:49:07.789Z,97474.15
2023-04-30T18:51:36.360Z,97475.92
2023-04-30T18:54:04.479Z,97480.09
2023-04-30T18:56:32.617Z,97484.13
2023-04-30T18:59:00.905Z,97488.48
2023-04-30T19:01:29.027Z,97496.38
2023-04-30T19:03:57.375Z,97501.91
2023-04-30T19:06:28.359Z,97508.52
2023-04-30T19:08:59.835Z,97510.31
2023-04-30T19:11:30.078Z,97510.05
2023-04-30T19:13:58.643Z,97515.06
2023-04-30T19:16:27.802Z,97517.40
2023-04-30T19:18:56.003Z,97517.77
2023-04-30T19:21:24.062Z,97521.90
2023-04-30T19:23:53.429Z,97518.47
2023-04-30T19:26:22.562Z,97515.23
2023-04-30T19:28:51.678Z,97517.83
2023-04-30T19:31:20.533Z,97516.43
2023-04-30T19:33:48.750Z,97519.40
2023-04-30T19:36:18.741Z,97525.09
2023-04-30T19:38:47.062Z,97525.96
2023-04-30T19:41:15.724Z,97521.36
2023-04-30T19:43:43.723Z,97522.00
2023-04-30T19:46:11.934Z,97527.98
2023-04-30T19:48:40.372Z,97532.50
2023-04-30T19:51:09.483Z,97536.16
2023-04-30T19:53:38.588Z,97541.81
2023-04-30T19:56:09.892Z,97544.59
2023-04-30T19:58:38.219Z,97546.95
2023-04-30T20:01:06.543Z,97544.65
2023-04-30T20:03:35.779Z,97549.30
2023-04-30T20:06:04.810Z,97549.73
2023-04-30T20:08:33.426Z,97552.65
2023-04-30T20:11:03.655Z,97554.20
2023-04-30T20:13:32.516Z,97555.09
2023-04-30T20:16:00.878Z,97555.77
2023-04-30T20:18:28.919Z,97560.42
2023-04-30T20:20:58.521Z,97559.27
2023-04-30T20:23:26.842Z,97560.13
2023-04-30T20:25:55.155Z,97567.30
2023-04-30T20:28:23.317Z,97567.80
2023-04-30T20:30:52.146Z,97573.10
2023-04-30T20:33:20.213Z,97578.66
2023-04-30T20:35:48.383Z,97580.86
2023-04-30T20:38:19.657Z,97579.38
2023-04-30T20:40:48.396Z,97582.70
2023-04-30T20:43:16.956Z,97585.99
2023-04-30T20:45:45.224Z,97586.69
2023-04-30T20:48:13.418Z,97594.85
2023-04-30T20:50:41.738Z,97602.30
2023-04-30T20:53:11.258Z,97605.91
2023-04-30T20:55:40.792Z,97607.60
2023-04-30T20:58:10.046Z,97609.23
2023-04-30T21:00:38.027Z,97608.69
2023-04-30T21:03:09.051Z,97612.59
2023-04-30T21:05:37.440Z,97614.22
2023-04-30T21:08:05.594Z,97611.17
2023-04-30T21:10:36.418Z,97611.23
2023-04-30T21:13:05.809Z,97616.38
2023-04-30T21:15:35.772Z,97611.69
2023-04-30T21:18:04.351Z,97613.84
2023-04-30T21:20:32.655Z,97614.11
2023-04-30T21:23:01.960Z,97614.02
2023-04-30T21:25:30.213Z,97615.37
2023-04-30T21:27:58.469Z,97615.02
2023-04-30T21:30:26.869Z,97620.71
2023-04-30T21:33:00.732Z,97625.09
2023-04-30T21:35:33.097Z,97626.77
2023-04-30T21:38:01.522Z,97626.46
2023-04-30T21:40:33.805Z,97629.45
2023-04-30T21:43:02.037Z,97629.92
2023-04-30T21:45:32.549Z,97634.45
2023-04-30T21:48:01.488Z,97638.05
2023-04-30T21:50:32.823Z,97644.97
2023-04-30T21:53:03.431Z,97645.45
2023-04-30T21:55:32.788Z,97645.82
2023-04-30T21:58:00.874Z,97647.66
2023-04-30T22:00:29.029Z,97647.88
2023-04-30T22:02:59.076Z,97648.87
2023-04-30T22:05:27.447Z,97649.48
2023-04-30T22:07:55.685Z,97650.98
2023-04-30T22:10:24.285Z,97656.05
2023-04-30T22:12:52.454Z,97661.55
2023-04-30T22:15:21.771Z,97664.77
2023-04-30T22:17:49.953Z,97667.05
2023-04-30T22:20:18.147Z,97667.83
2023-04-30T22:22:46.397Z,97662.46
2023-04-30T22:25:15.278Z,97663.46
2023-04-30T22:27:43.568Z,97669.66
2023-04-30T22:30:12.429Z,97669.33
2023-04-30T22:32:41.077Z,97673.15
2023-04-30T22:35:11.602Z,97669.89
2023-04-30T22:37:41.165Z,97675.14
2023-04-30T22:40:09.582Z,97680.36
2023-04-30T22:42:37.827Z,97676.20
2023-04-30T22:45:06.357Z,97682.34
2023-04-30T22:47:35.274Z,97682.02
2023-04-30T22:50:03.917Z,97685.88
2023-04-30T22:52:33.209Z,97681.95
2023-04-30T22:55:02.156Z,97684.20
2023-04-30T22:57:30.225Z,97687.98
2023-04-30T22:59:58.508Z,97693.19
2023-04-30T23:02:26.868Z,97693.50
2023-04-30T23:04:54.961Z,97695.04
2023-04-30T23:07:23.406Z,97698.41
2023-04-30T23:09:51.604Z,97702.84
2023-04-30T23:12:19.661Z,97700.15
2023-04-30T23:14:47.747Z,97699.90
2023-04-30T23:17:16.380Z,97693.02
2023-04-30T23:19:44.394Z,97692.00
2023-04-30T23:22:12.495Z,97690.49
2023-04-30T23:24:41.348Z,97689.60
2023-04-30T23:27:10.164Z,97692.48
2023-04-30T23:29:38.170Z,97688.98
2023-04-30T23:32:06.314Z,97691.06
2023-04-30T23:34:34.518Z,97691.02
2023-04-30T23:37:03.045Z,97694.16
2023-04-30T23:39:31.745Z,97691.62
2023-04-30T23:42:00.369Z,97687.88
2023-04-30T23:44:31.643Z,97690.42
2023-04-30T23:47:00.976Z,97693.74
2023-04-30T23:49:29.094Z,97695.05
2023-04-30T23:51:57.309Z,97693.86
2023-04-30T23:54:25.276Z,97702.77
2023-04-30T23:56:53.568Z,97709.70
2023-04-30T23:59:24.407Z,97707.09
